Time;durP1;ratioP1;P1;durP2;ratioP2;P2;SDS_P1;SDS_P2;PMS_P1;PMS_P2;Temp;Humidity;BMP_temperature;BMP_pressure;BME280_temperature;BME280_humidity;BME280_pressure;Samples;Min_cycle;Max_cycle;Signal;HPM_P1;HPM_P2
2022/08/06 00:01:32;;;;;;;6.83;5.78;;;;;;;23.28;60.42;100255.69;2138530;82;27663;-58
2022/08/06 00:04:33;;;;;;;6.42;5.62;;;;;;;23.24;60.63;100261.65;2138483;83;28684;-58
2022/08/06 00:07:35;;;;;;;9.13;6.22;;;;;;;23.20;60.75;100266.55;2138632;83;31024;-58
2022/08/06 00:10:37;;;;;;;6.70;5.97;;;;;;;23.17;60.87;100275.91;2138560;83;34246;-59
2022/08/06 00:13:38;;;;;;;8.75;5.55;;;;;;;23.16;61.12;100290.62;2138644;83;29698;-59
2022/08/06 00:16:40;;;;;;;10.48;6.47;;;;;;;23.13;61.30;100299.62;2138905;82;27723;-58
2022/08/06 00:19:41;;;;;;;6.45;5.95;;;;;;;23.10;61.49;100298.07;2139039;83;29430;-59
2022/08/06 00:22:43;;;;;;;6.50;5.87;;;;;;;23.08;61.55;100301.99;2138631;83;31025;-58
2022/08/06 00:25:45;;;;;;;6.65;5.97;;;;;;;23.05;61.68;100318.17;2138549;83;33871;-58
2022/08/06 00:28:48;;;;;;;6.33;5.70;;;;;;;23.03;61.84;100325.17;2138750;83;29982;-58
2022/08/06 00:31:50;;;;;;;6.70;5.75;;;;;;;23.03;61.94;100340.69;2138260;83;27597;-58
2022/08/06 00:34:51;;;;;;;6.60;5.22;;;;;;;23.01;62.15;100353.16;2138626;82;28635;-58
2022/08/06 00:37:52;;;;;;;14.78;6.50;;;;;;;23.01;62.71;100353.64;2138657;83;32182;-59
2022/08/06 00:40:53;;;;;;;7.90;6.97;;;;;;;22.99;62.97;100375.67;2138561;83;33007;-58
2022/08/06 00:43:56;;;;;;;9.23;6.85;;;;;;;22.98;63.53;100384.04;2138573;83;29399;-58
2022/08/06 00:46:58;;;;;;;10.95;6.83;;;;;;;22.96;64.24;100387.43;2138756;83;27691;-59
2022/08/06 00:49:59;;;;;;;11.78;7.72;;;;;;;22.94;64.55;100401.23;2139020;82;28765;-59
2022/08/06 00:53:03;;;;;;;14.87;7.85;;;;;;;22.90;65.02;100394.38;2138734;83;31443;-58
2022/08/06 00:56:06;;;;;;;16.00;8.03;;;;;;;22.84;65.54;100388.16;2138612;83;33878;-58
2022/08/06 00:59:07;;;;;;;13.83;7.33;;;;;;;22.71;65.79;100368.91;2138214;83;29328;-59
2022/08/06 01:02:10;;;;;;;14.50;8.20;;;;;;;22.61;66.25;100373.55;2136487;82;27743;-59
2022/08/06 01:05:12;;;;;;;11.15;8.15;;;;;;;22.49;66.72;100367.47;2136525;83;28711;-59
2022/08/06 01:08:14;;;;;;;12.60;8.55;;;;;;;22.42;67.42;100349.97;2136267;83;31056;-58
2022/08/06 01:11:15;;;;;;;8.75;7.85;;;;;;;22.29;67.54;100338.00;2136336;83;33644;-59
2022/08/06 01:14:18;;;;;;;7.67;6.97;;;;;;;22.16;68.13;100337.86;2136612;83;29705;-59
2022/08/06 01:17:39;;;;;;;7.83;7.12;;;;;;;22.05;68.32;100335.82;2136619;83;28264;-58
2022/08/06 01:21:11;;;;;;;8.68;7.25;;;;;;;21.92;68.61;100339.75;2136393;83;28405;-58
2022/08/06 01:24:33;;;;;;;8.98;8.15;;;;;;;21.82;68.98;100337.06;2135869;83;32263;-58
2022/08/06 01:27:58;;;;;;;10.88;7.70;;;;;;;21.76;69.51;100340.89;2135086;83;33814;-59
2022/08/06 01:31:08;;;;;;;12.00;8.08;;;;;;;21.70;69.79;100339.09;2137574;83;30521;-58
2022/08/06 01:34:17;;;;;;;7.97;7.28;;;;;;;21.66;70.01;100351.81;2138374;83;27664;-58
2022/08/06 01:37:40;;;;;;;12.50;7.90;;;;;;;21.64;70.26;100348.38;2138346;83;28646;-58
2022/08/06 01:40:43;;;;;;;8.53;7.55;;;;;;;;;;2138717;83;31603;-58
2022/08/06 01:43:44;;;;;;;9.53;7.90;;;;;;;21.58;70.68;100358.49;2139129;83;33276;-58
2022/08/06 01:46:53;;;;;;;8.98;8.10;;;;;;;21.57;71.10;100379.94;2138799;82;29495;-58
2022/08/06 01:49:58;;;;;;;10.38;8.80;;;;;;;21.55;71.42;100390.48;2138528;83;27652;-58
2022/08/06 01:53:01;;;;;;;10.82;8.83;;;;;;;21.54;71.63;100384.67;2138989;83;28633;-59
2022/08/06 01:56:05;;;;;;;10.85;9.85;;;;;;;21.55;71.77;100401.88;2138895;83;31075;-58
2022/08/06 01:59:07;;;;;;;12.33;10.40;;;;;;;21.54;71.94;100410.57;2138558;83;32962;-58
2022/08/06 02:02:13;;;;;;;13.03;10.85;;;;;;;21.53;72.25;100420.23;2094007;84;30228;-59
2022/08/06 02:05:16;;;;;;;13.62;11.25;;;;;;;21.50;72.20;100417.83;2093626;85;27634;-58
2022/08/06 02:08:18;;;;;;;14.50;12.90;;;;;;;21.45;72.14;100419.59;2094193;85;28721;-59
2022/08/06 02:11:20;;;;;;;13.18;11.83;;;;;;;21.42;72.31;100425.37;2094025;85;31593;-59
2022/08/06 02:14:24;;;;;;;17.62;13.35;;;;;;;21.40;72.38;100436.91;2093848;84;33324;-58
2022/08/06 02:17:29;;;;;;;15.23;13.13;;;;;;;21.38;72.64;100443.84;2094090;85;29476;-59
2022/08/06 02:20:39;;;;;;;16.95;12.98;;;;;;;21.36;72.69;100449.09;2093644;85;27687;-58
2022/08/06 02:23:41;;;;;;;18.57;14.75;;;;;;;21.34;72.96;100456.06;2093973;85;29065;-58
2022/08/06 02:26:44;;;;;;;15.53;13.65;;;;;;;21.34;73.08;100464.23;2093989;85;31447;-58
2022/08/06 02:29:47;;;;;;;14.70;13.25;;;;;;;21.32;73.36;100470.33;2094213;85;34263;-58
2022/08/06 02:32:49;;;;;;;15.88;12.43;;;;;;;21.29;73.39;100477.91;2095908;84;29332;-59
2022/08/06 02:35:56;;;;;;;12.28;10.70;;;;;;;21.23;73.44;100469.31;2096120;84;27647;-58
2022/08/06 02:39:17;;;;;;;11.90;10.68;;;;;;;21.16;73.32;100485.01;2095812;84;28811;-59
2022/08/06 02:42:27;;;;;;;16.05;11.33;;;;;;;21.11;73.46;100500.39;2094144;84;31415;-59
2022/08/06 02:45:38;;;;;;;12.33;11.08;;;;;;;21.05;73.44;100503.69;2095956;84;33136;-59
2022/08/06 02:48:51;;;;;;;11.05;9.88;;;;;;;20.98;73.52;100506.11;2095927;84;29448;-59
2022/08/06 02:52:03;;;;;;;13.53;11.18;;;;;;;20.90;73.34;100512.73;2096111;84;27662;-60
2022/08/06 02:55:12;;;;;;;12.47;10.10;;;;;;;20.86;73.71;100525.78;2095776;85;29399;-59
2022/08/06 02:58:31;;;;;;;15.70;10.58;;;;;;;20.80;73.61;100535.84;2095976;84;31062;-59
2022/08/06 03:01:38;;;;;;;11.60;9.93;;;;;;;20.75;73.73;100531.30;2060972;84;33398;-59
2022/08/06 03:04:44;;;;;;;12.15;9.88;;;;;;;20.70;73.67;100529.48;2069593;85;29339;-59
2022/08/06 03:07:49;;;;;;;8.95;8.05;;;;;;;20.65;73.66;100528.53;2090394;84;27752;-59
2022/08/06 03:10:54;;;;;;;12.00;7.67;;;;;;;20.55;73.58;100523.04;2109910;84;28747;-59
2022/08/06 03:13:57;;;;;;;9.03;7.62;;;;;;;20.46;73.39;100509.74;2110359;84;31861;-59
2022/08/06 03:17:01;;;;;;;9.53;6.87;;;;;;;20.35;73.49;100488.07;2109957;84;33449;-59
2022/08/06 03:20:06;;;;;;;11.80;7.55;;;;;;;20.23;73.60;100494.56;2109988;84;29381;-60
2022/08/06 03:23:09;;;;;;;14.07;8.13;;;;;;;20.14;74.57;100489.43;2110532;84;27713;-58
2022/08/06 03:26:11;;;;;;;8.55;7.47;;;;;;;20.04;73.96;100500.25;2110172;84;28637;-58
2022/08/06 03:29:14;;;;;;;7.90;6.75;;;;;;;20.00;74.40;100502.38;2117465;83;31925;-59
2022/08/06 03:32:17;;;;;;;7.58;6.78;;;;;;;19.93;74.32;100487.61;2138062;83;33064;-58
2022/08/06 03:35:19;;;;;;;9.95;6.62;;;;;;;19.83;74.44;100475.27;2118596;83;30484;-58
2022/08/06 03:38:23;;;;;;;8.65;5.60;;;;;;;19.75;74.55;100472.33;2137891;83;27644;-58
2022/08/06 03:41:26;;;;;;;8.13;5.37;;;;;;;19.65;74.69;100486.35;2138214;83;28421;-58
2022/08/06 03:44:28;;;;;;;5.62;5.10;;;;;;;19.56;74.56;100485.28;2138201;83;31372;-58
2022/08/06 03:47:34;;;;;;;6.37;5.42;;;;;;;19.50;74.68;100500.25;2137594;83;32239;-58
2022/08/06 03:50:42;;;;;;;6.53;4.45;;;;;;;19.44;74.78;100516.55;2138095;83;29701;-58
2022/08/06 03:53:45;;;;;;;12.40;5.05;;;;;;;19.38;74.70;100533.86;2138324;83;27652;-58
2022/08/06 03:56:47;;;;;;;5.40;4.33;;;;;;;19.32;74.87;100531.67;2138054;83;29351;-58
2022/08/06 03:59:52;;;;;;;5.97;4.55;;;;;;;19.25;74.91;100544.91;2142469;83;32102;-58
2022/08/06 04:02:54;;;;;;;;;;;;;;;19.21;75.19;100548.34;2148194;82;33614;-58
2022/08/06 04:05:56;;;;;;;4.17;3.62;;;;;;;19.13;75.14;100543.55;2139157;83;29755;-58
2022/08/06 04:08:59;;;;;;;7.65;3.92;;;;;;;19.04;75.15;100548.86;2139404;83;27741;-58
2022/08/06 04:12:02;;;;;;;4.30;3.80;;;;;;;18.96;75.16;100549.48;2139539;83;29037;-59
2022/08/06 04:15:06;;;;;;;3.05;2.58;;;;;;;18.90;75.46;100561.69;2139301;83;30842;-59
2022/08/06 04:18:11;;;;;;;3.83;2.95;;;;;;;18.85;75.31;100572.55;2139355;83;32974;-58
2022/08/06 04:21:19;;;;;;;2.67;2.47;;;;;;;18.79;75.33;100590.19;2138421;83;29769;-59
2022/08/06 04:24:21;;;;;;;2.55;2.35;;;;;;;18.76;75.59;100598.09;2139486;83;27722;-58
2022/08/06 04:27:24;;;;;;;6.42;2.60;;;;;;;18.73;75.66;100609.20;2139275;83;28837;-58
2022/08/06 04:30:26;;;;;;;4.05;3.05;;;;;;;18.72;75.84;100610.66;2135179;82;31047;-58
2022/08/06 04:33:28;;;;;;;5.30;3.72;;;;;;;18.67;75.77;100621.41;2133467;83;32275;-59
2022/08/06 04:36:29;;;;;;;5.08;3.77;;;;;;;18.65;75.80;100629.27;2112933;83;29334;-57
2022/08/06 04:39:31;;;;;;;6.60;4.20;;;;;;;18.52;75.28;100650.59;2135283;83;27754;-58
2022/08/06 04:42:32;;;;;;;5.55;4.95;;;;;;;18.40;75.08;100666.94;2133775;83;29481;-59
2022/08/06 04:45:42;;;;;;;7.25;4.90;;;;;;;18.21;74.80;100680.08;2133758;83;31087;-58
2022/08/06 04:48:43;;;;;;;7.92;5.22;;;;;;;18.11;74.96;100693.09;2133847;82;34089;-58
2022/08/06 04:51:47;;;;;;;4.97;4.40;;;;;;;17.99;74.85;100712.02;2133450;83;29384;-58
2022/08/06 04:54:49;;;;;;;5.92;4.37;;;;;;;17.90;74.87;100714.00;2133708;83;27606;-59
2022/08/06 04:57:50;;;;;;;4.30;3.40;;;;;;;17.79;74.75;100724.27;2133747;82;28655;-59
2022/08/06 05:00:52;;;;;;;3.42;3.08;;;;;;;17.66;74.27;100728.39;2139073;83;31777;-59
2022/08/06 05:03:53;;;;;;;4.30;2.77;;;;;;;17.58;74.42;100732.13;2138935;83;33652;-59
2022/08/06 05:07:27;;;;;;;3.72;2.72;;;;;;;17.46;74.08;100742.89;2139604;83;30295;-59
2022/08/06 05:10:37;;;;;;;3.83;2.75;;;;;;;17.35;74.09;100750.04;2139374;83;27708;-58
2022/08/06 05:13:39;;;;;;;3.52;2.37;;;;;;;17.26;74.54;100748.84;2139503;83;28660;-59
2022/08/06 05:16:45;;;;;;;3.30;2.72;;;;;;;17.21;74.52;100760.52;2139368;83;31447;-58
2022/08/06 05:19:52;;;;;;;4.62;3.00;;;;;;;17.15;74.63;100769.44;2139320;83;33716;-59
2022/08/06 05:22:59;;;;;;;3.08;2.77;;;;;;;17.10;74.71;100774.30;2138659;83;29480;-59
2022/08/06 05:26:01;;;;;;;4.50;2.83;;;;;;;17.04;74.97;100791.45;2138826;83;27803;-60
2022/08/06 05:29:02;;;;;;;4.70;2.90;;;;;;;17.03;75.18;100795.12;2139445;83;28825;-60
2022/08/06 05:32:05;;;;;;;4.53;3.08;;;;;;;17.03;75.63;100801.43;2116461;83;30936;-60
2022/08/06 05:35:08;;;;;;;7.17;3.05;;;;;;;17.04;75.73;100808.58;2139507;83;33027;-60
2022/08/06 05:38:10;;;;;;;3.90;3.20;;;;;;;17.02;75.68;100815.94;2139485;83;30133;-59
2022/08/06 05:41:11;;;;;;;4.10;3.45;;;;;;;17.03;75.74;100822.20;2139466;83;27707;-59
2022/08/06 05:44:13;;;;;;;5.50;3.12;;;;;;;17.01;76.07;100823.17;2139068;83;29166;-59
2022/08/06 05:47:19;;;;;;;4.42;3.50;;;;;;;17.02;75.95;100821.34;2139429;83;31734;-59
2022/08/06 05:50:23;;;;;;;5.15;3.22;;;;;;;17.00;76.11;100823.29;2139246;83;32461;-59
2022/08/06 05:53:36;;;;;;;5.97;3.95;;;;;;;16.99;76.10;100827.81;2136761;83;30273;-60
2022/08/06 05:56:42;;;;;;;5.42;4.22;;;;;;;16.97;76.10;100830.26;2134067;83;28181;-59
2022/08/06 05:59:49;;;;;;;7.75;3.65;;;;;;;16.96;76.25;100832.58;2134064;82;29066;-58
2022/08/06 06:02:54;;;;;;;4.53;3.45;;;;;;;16.97;76.43;100852.77;2134028;83;31059;-59
2022/08/06 06:05:58;;;;;;;5.70;4.05;;;;;;;16.95;76.42;100853.38;2131231;83;33840;-60
2022/08/06 06:09:00;;;;;;;9.40;3.87;;;;;;;16.95;76.57;100857.44;2131285;83;29372;-59
2022/08/06 06:12:03;;;;;;;6.05;3.80;;;;;;;16.97;76.76;100860.88;2131260;83;28215;-60
2022/08/06 06:15:07;;;;;;;7.75;4.97;;;;;;;16.98;76.87;100860.41;2130917;83;28681;-60
2022/08/06 06:18:25;;;;;;;6.12;4.00;;;;;;;16.98;76.81;100862.62;2131123;83;31006;-60
2022/08/06 06:21:41;;;;;;;9.10;4.30;;;;;;;16.99;76.74;100868.42;2131156;83;33852;-59
2022/08/06 06:24:48;;;;;;;4.85;4.40;;;;;;;17.00;77.02;100863.89;2136338;82;30098;-59
2022/08/06 06:28:04;;;;;;;5.67;4.08;;;;;;;17.03;76.99;100874.52;2136475;83;28292;-60
2022/08/06 06:31:23;;;;;;;7.65;4.58;;;;;;;17.04;77.20;100876.25;2129832;83;29070;-59
2022/08/06 06:34:53;;;;;;;8.60;4.60;;;;;;;17.03;76.99;100879.92;2135191;83;31044;-59
2022/08/06 06:38:23;;;;;;;6.28;4.87;;;;;;;17.04;77.09;100874.02;2136535;82;33383;-60
2022/08/06 06:41:38;;;;;;;6.33;4.87;;;;;;;17.06;77.24;100874.28;2136061;83;30369;-60
2022/08/06 06:44:45;;;;;;;7.35;4.42;;;;;;;17.12;77.29;100882.50;2136815;83;28236;-60
2022/08/06 06:48:02;;;;;;;7.95;5.30;;;;;;;17.15;77.31;100882.27;2136890;83;29279;-60
2022/08/06 06:51:09;;;;;;;4.87;4.37;;;;;;;17.19;77.35;100904.61;2136657;83;31773;-60
2022/08/06 06:54:25;;;;;;;7.65;4.70;;;;;;;17.19;77.14;100899.19;2136217;83;33095;-60
2022/08/06 06:57:31;;;;;;;4.75;4.33;;;;;;;17.21;77.13;100906.22;2136753;83;29260;-59
2022/08/06 07:00:34;;;;;;;8.13;4.87;;;;;;;17.26;77.45;100913.56;2136638;83;27743;-59
2022/08/06 07:03:38;;;;;;;6.62;4.95;;;;;;;17.33;77.42;100919.42;2136943;83;29524;-60
2022/08/06 07:06:40;;;;;;;7.92;4.97;;;;;;;17.38;77.51;100919.95;2138490;83;31469;-59
2022/08/06 07:09:43;;;;;;;6.50;4.83;;;;;;;17.43;77.46;100919.16;2139059;83;33688;-59
2022/08/06 07:12:45;;;;;;;4.92;4.50;;;;;;;17.44;77.41;100926.81;2138969;83;29495;-60
2022/08/06 07:15:48;;;;;;;5.33;4.28;;;;;;;17.47;77.56;100919.81;2138574;83;27785;-59
2022/08/06 07:18:50;;;;;;;6.58;4.78;;;;;;;17.49;77.58;100916.51;2139221;83;29616;-59
2022/08/06 07:21:51;;;;;;;7.55;5.22;;;;;;;17.53;77.47;100924.81;2138508;83;30802;-59
2022/08/06 07:24:58;;;;;;;7.15;4.97;;;;;;;17.55;77.39;100932.35;2136532;83;32964;-59
2022/08/06 07:27:59;;;;;;;6.35;4.58;;;;;;;17.55;77.28;100933.70;2136566;83;29316;-59
2022/08/06 07:31:04;;;;;;;6.87;4.83;;;;;;;17.56;77.12;100926.44;2136572;83;27740;-59
2022/08/06 07:34:06;;;;;;;8.40;4.97;;;;;;;17.55;77.19;100926.94;2136598;83;29334;-59
2022/08/06 07:37:09;;;;;;;5.17;4.67;;;;;;;17.56;77.12;100928.67;2136474;83;31047;-59
2022/08/06 07:40:16;;;;;;;7.55;5.05;;;;;;;17.55;77.07;100924.23;2136473;83;33599;-58
2022/08/06 07:43:23;;;;;;;5.90;5.30;;;;;;;17.59;77.15;100935.71;2135815;83;30123;-59
2022/08/06 07:46:33;;;;;;;5.37;4.97;;;;;;;17.59;77.06;100934.36;2135609;83;27616;-59
2022/08/06 07:49:41;;;;;;;7.72;5.00;;;;;;;17.61;77.05;100937.83;2136541;83;28651;-59
2022/08/06 07:52:43;;;;;;;8.13;5.47;;;;;;;17.64;77.17;100947.58;2137196;83;32192;-59
2022/08/06 07:55:49;;;;;;;6.72;5.35;;;;;;;17.70;77.22;100945.81;2138656;83;57024;-59
2022/08/06 07:58:52;;;;;;;6.70;4.80;;;;;;;17.76;77.33;100950.81;2138822;83;30197;-59
2022/08/06 08:01:53;;;;;;;5.03;4.53;;;;;;;17.81;77.21;100958.11;2138445;83;27668;-59
2022/08/06 08:08:15;;;;;;;12.47;4.97;;;;;;;17.90;77.07;100962.91;2138807;83;31754;-60
2022/08/06 08:11:17;;;;;;;5.50;4.72;;;;;;;17.96;76.88;100974.28;2138701;83;33539;-58
2022/08/06 08:14:21;;;;;;;6.20;4.72;;;;;;;18.04;77.01;100972.80;2138636;83;29718;-61
2022/08/06 08:17:22;;;;;;;;;;;;;;;18.10;76.90;100975.59;2141500;83;27684;-59
2022/08/06 08:20:30;;;;;;;7.05;4.87;;;;;;;18.18;76.86;100978.61;2095629;85;28691;-59
2022/08/06 08:23:32;;;;;;;5.85;4.33;;;;;;;18.22;76.66;100980.61;2074871;85;31908;-60
2022/08/06 08:26:34;;;;;;;4.65;4.25;;;;;;;18.21;75.81;100979.75;2075701;85;33680;-60
2022/08/06 08:29:37;;;;;;;4.70;4.20;;;;;;;18.25;76.05;100980.89;2075548;85;29681;-60
2022/08/06 08:32:38;;;;;;;8.08;4.25;;;;;;;18.25;75.59;100992.60;2075545;85;27608;-61
2022/08/06 08:35:39;;;;;;;7.72;4.75;;;;;;;18.25;75.59;100992.60;2075366;85;28801;-61
2022/08/06 08:38:41;;;;;;;4.78;4.30;;;;;;;18.34;76.00;101005.52;2075182;85;31756;-59
2022/08/06 08:41:54;;;;;;;9.13;4.20;;;;;;;18.46;76.01;101001.04;2075389;85;33388;-61
2022/08/06 08:44:57;;;;;;;6.03;4.17;;;;;;;18.58;75.81;101004.72;2075083;85;29270;-60
2022/08/06 08:48:00;;;;;;;7.78;3.45;;;;;;;18.74;75.93;101004.48;2075694;85;27668;-61
2022/08/06 08:51:02;;;;;;;4.08;3.62;;;;;;;18.94;75.98;101008.95;2075528;85;28666;-61
2022/08/06 08:54:08;;;;;;;7.22;3.70;;;;;;;19.08;75.51;101004.75;2074463;85;30988;-61
2022/08/06 08:57:10;;;;;;;4.47;3.22;;;;;;;19.28;75.30;101010.04;2074441;85;32960;-58
2022/08/06 09:00:15;;;;;;;5.03;3.50;;;;;;;19.48;75.12;101005.42;2074475;85;29315;-59
2022/08/06 09:03:16;;;;;;;4.47;3.65;;;;;;;19.62;74.46;101002.52;2074842;85;27706;-58
2022/08/06 09:06:20;;;;;;;8.53;3.20;;;;;;;19.79;74.56;101012.11;2074245;85;28481;-58
2022/08/06 09:09:22;;;;;;;4.07;3.50;;;;;;;19.98;74.35;101018.36;2074826;85;31473;-60
2022/08/06 09:12:24;;;;;;;4.97;3.50;;;;;;;20.18;73.79;101007.77;2074171;85;34287;-60
2022/08/06 09:15:25;;;;;;;3.87;3.50;;;;;;;20.38;73.60;101010.26;2074469;85;29750;-61
2022/08/06 09:18:27;;;;;;;4.97;3.58;;;;;;;20.58;73.24;101011.88;2074851;85;27732;-59
2022/08/06 09:21:29;;;;;;;7.17;3.40;;;;;;;20.71;72.50;101015.33;2074419;85;28826;-61
2022/08/06 09:24:30;;;;;;;6.60;3.40;;;;;;;20.77;72.17;101019.44;2075461;85;32244;-59
2022/08/06 09:27:36;;;;;;;3.85;3.40;;;;;;;20.86;72.08;101021.43;2051716;85;32204;-62
2022/08/06 09:30:39;;;;;;;4.97;3.33;;;;;;;20.97;71.87;101020.55;2075457;85;29353;-58
2022/08/06 09:34:00;;;;;;;5.90;3.67;;;;;;;21.14;71.44;101025.95;2075371;85;27621;-60
2022/08/06 09:37:04;;;;;;;4.03;3.62;;;;;;;21.35;70.88;101026.52;2049322;85;28235;-64
2022/08/06 09:40:19;;;;;;;5.50;2.83;;;;;;;21.59;70.86;101025.46;2075276;85;31064;-63
2022/08/06 09:43:26;;;;;;;4.87;2.65;;;;;;;21.83;70.22;101031.56;2075327;85;34216;-59
2022/08/06 09:46:44;;;;;;;3.50;3.20;;;;;;;21.95;69.31;101026.04;2075383;85;29342;-62
2022/08/06 09:49:47;;;;;;;3.67;3.12;;;;;;;22.20;68.63;101032.11;2075297;85;28398;-60
2022/08/06 09:53:02;;;;;;;4.85;3.00;;;;;;;22.29;67.60;101032.16;2036820;87;28859;-60
2022/08/06 09:56:08;;;;;;;6.80;2.62;;;;;;;22.42;66.99;101037.93;2033639;87;31380;-58
2022/08/06 09:59:12;;;;;;;5.33;3.12;;;;;;;22.54;66.60;101041.45;2035516;87;33166;-59
2022/08/06 10:02:19;;;;;;;31.95;24.10;;;;;;;22.58;64.43;101040.18;2024032;87;27777;-60
2022/08/06 10:05:20;;;;;;;;;;;;;;;22.56;64.55;101036.72;2039149;87;27713;-59
2022/08/06 10:08:24;;;;;;;2.92;2.60;;;;;;;22.55;63.64;101033.63;1993356;87;28853;-59
2022/08/06 10:11:37;;;;;;;3.77;3.35;;;;;;;22.65;64.02;101040.50;1992025;87;31232;-63
2022/08/06 10:14:38;;;;;;;5.85;2.72;;;;;;;22.83;63.47;101050.27;2036026;87;33347;-62
2022/08/06 10:17:46;;;;;;;2.85;2.58;;;;;;;22.88;63.23;101046.63;2036543;87;29436;-61
2022/08/06 10:21:02;;;;;;;2.80;2.60;;;;;;;22.94;62.84;101048.78;2037009;87;27670;-61
2022/08/06 10:24:06;;;;;;;5.15;2.40;;;;;;;23.08;62.78;101053.00;2036706;87;28665;-62
2022/08/06 10:27:10;;;;;;;2.85;2.65;;;;;;;23.25;61.89;101052.00;2036954;87;31986;-59
2022/08/06 10:30:13;;;;;;;4.30;2.20;;;;;;;23.43;62.06;101054.89;2036644;87;32977;-60
2022/08/06 10:33:16;;;;;;;2.72;2.50;;;;;;;23.65;61.14;101054.64;2037014;87;30240;-63
2022/08/06 10:36:22;;;;;;;2.83;2.05;;;;;;;23.81;60.22;101053.20;2036736;87;27642;-64
2022/08/06 10:39:27;;;;;;;3.70;2.30;;;;;;;23.93;59.81;101047.08;2036772;87;28653;-59
2022/08/06 10:42:29;;;;;;;2.62;2.27;;;;;;;24.01;59.80;101046.38;2036629;87;31912;-61
2022/08/06 10:45:33;;;;;;;2.20;2.00;;;;;;;24.08;58.84;101047.50;2036669;87;33356;-58
2022/08/06 10:48:37;;;;;;;3.33;2.00;;;;;;;24.14;57.36;101043.34;2036886;87;30503;-57
2022/08/06 10:51:39;;;;;;;5.58;1.75;;;;;;;24.17;58.01;101053.48;2036899;87;27769;-58
2022/08/06 10:54:40;;;;;;;2.90;2.20;;;;;;;24.22;57.61;101048.93;2040134;85;29114;-62
2022/08/06 10:57:42;;;;;;;3.10;2.00;;;;;;;24.12;56.75;101040.73;2074630;85;31412;-61
2022/08/06 11:00:44;;;;;;;3.22;1.77;;;;;;;24.11;57.11;101045.36;2049188;85;33098;-64
2022/08/06 11:04:08;;;;;;;2.52;1.70;;;;;;;24.04;55.38;101045.57;2074765;85;29670;-63
2022/08/06 11:07:44;;;;;;;4.97;1.55;;;;;;;23.99;54.93;101042.43;2073460;85;27652;-59
2022/08/06 11:11:12;;;;;;;3.27;1.60;;;;;;;23.99;55.25;101046.53;2073789;85;29101;-64
2022/08/06 11:14:14;;;;;;;1.60;1.50;;;;;;;24.07;55.21;101041.70;2073762;85;31055;-60
2022/08/06 11:17:17;;;;;;;1.95;1.40;;;;;;;24.16;54.76;101041.33;2073057;85;33396;-67
2022/08/06 11:20:41;;;;;;;1.77;1.55;;;;;;;24.16;53.24;101035.33;2083452;84;30192;-68
2022/08/06 11:23:43;;;;;;;2.83;1.37;;;;;;;24.12;53.52;101036.14;2130206;82;27520;-59
2022/08/06 11:26:44;;;;;;;2.05;1.27;;;;;;;24.01;52.33;101035.42;2134948;82;28419;-66
2022/08/06 11:30:11;;;;;;;6.62;1.60;;;;;;;23.91;52.76;101034.88;2130354;82;32193;-59
2022/08/06 11:33:19;;;;;;;3.52;1.30;;;;;;;23.80;52.21;101032.31;2138355;82;33787;-58
2022/08/06 11:36:28;;;;;;;2.95;1.85;;;;;;;23.69;52.84;101029.22;2127186;83;30411;-60
2022/08/06 11:39:30;;;;;;;2.77;1.30;;;;;;;23.71;52.04;101023.62;2140759;82;27703;-58
2022/08/06 11:42:43;;;;;;;1.55;1.35;;;;;;;23.79;52.67;101024.63;2128153;83;28679;-60
2022/08/06 11:46:22;;;;;;;1.45;1.22;;;;;;;23.92;52.81;101027.03;2123984;82;31107;-62
2022/08/06 11:49:47;;;;;;;2.10;1.40;;;;;;;23.90;51.19;101029.08;1977244;89;33918;-62
2022/08/06 11:52:48;;;;;;;1.22;1.10;;;;;;;23.78;51.64;101031.59;1980487;89;29734;-60
2022/08/06 11:56:05;;;;;;;2.27;1.00;;;;;;;23.66;51.40;101026.80;1976630;89;27718;-62
2022/08/06 11:59:14;;;;;;;3.80;1.32;;;;;;;23.65;51.00;101025.91;1977513;89;28893;-63
2022/08/06 12:02:38;;;;;;;1.60;1.20;;;;;;;23.69;50.65;101021.53;1979817;89;31727;-61
2022/08/06 12:05:40;;;;;;;2.50;1.35;;;;;;;23.78;50.84;101028.85;1976780;88;33102;-61
2022/08/06 12:08:41;;;;;;;5.35;1.27;;;;;;;23.94;51.04;101018.70;2000904;88;29407;-66
2022/08/06 12:11:42;;;;;;;3.33;1.42;;;;;;;23.98;49.10;101024.28;1988673;88;27713;-60
2022/08/06 12:14:44;;;;;;;1.20;1.10;;;;;;;23.88;50.01;101026.11;1996873;88;28935;-63
2022/08/06 12:18:03;;;;;;;1.57;1.07;;;;;;;23.89;50.43;101026.47;1994420;88;31240;-62
2022/08/06 12:21:10;;;;;;;4.10;1.02;;;;;;;23.89;49.48;101027.35;1997600;88;33388;-60
2022/08/06 12:24:14;;;;;;;2.75;1.17;;;;;;;23.76;48.73;101022.66;2077631;84;29435;-60
2022/08/06 12:27:16;;;;;;;1.47;1.00;;;;;;;23.65;49.38;101011.39;2160071;81;27641;-57
2022/08/06 12:30:18;;;;;;;3.58;1.22;;;;;;;23.64;49.11;101018.71;2160156;81;28543;-65
2022/08/06 12:33:22;;;;;;;2.85;1.30;;;;;;;23.57;48.83;101019.44;2166929;81;31522;-58
2022/08/06 12:36:27;;;;;;;1.80;1.20;;;;;;;23.56;49.22;101022.69;2169350;81;33039;-66
2022/08/06 12:40:23;;;;;;;2.47;1.12;;;;;;;23.63;49.53;101019.72;2163280;81;29339;-60
2022/08/06 12:42:37;;;;;;;1.45;1.00;;;;;;;23.74;49.79;101017.86;2148945;81;27900;-65
2022/08/06 12:45:39;;;;;;;3.40;1.20;;;;;;;23.79;48.12;101021.01;2155555;81;28383;-61
2022/08/06 12:48:48;;;;;;;1.47;1.37;;;;;;;23.65;47.40;101013.60;2164978;81;31397;-61
2022/08/06 12:51:49;;;;;;;5.10;1.37;;;;;;;23.64;47.44;101016.50;2162741;81;32915;-64
2022/08/06 12:54:50;;;;;;;3.20;1.27;;;;;;;23.68;47.31;101016.55;2168243;81;29192;-60
2022/08/06 12:57:51;;;;;;;2.08;1.32;;;;;;;23.65;47.06;101016.34;2153423;81;27688;-60
2022/08/06 13:00:56;;;;;;;3.42;1.20;;;;;;;23.56;47.28;101016.33;2162938;81;29251;-63
2022/08/06 13:03:59;;;;;;;1.87;1.45;;;;;;;23.50;47.40;101014.52;2160381;81;31063;-61
2022/08/06 13:07:01;;;;;;;1.40;1.30;;;;;;;23.45;46.90;101008.64;2165523;81;34341;-62
2022/08/06 13:10:10;;;;;;;0.95;0.90;;;;;;;23.39;46.86;101005.10;2168765;81;29280;-59
2022/08/06 13:13:11;;;;;;;1.40;1.05;;;;;;;23.43;47.07;101011.14;2164244;81;27673;-61
2022/08/06 13:16:15;;;;;;;3.27;1.10;;;;;;;23.40;45.74;101006.83;2141895;81;28877;-67
2022/08/06 13:19:18;;;;;;;5.42;1.72;;;;;;;23.33;45.83;101012.01;2163396;81;31014;-63
2022/08/06 13:22:21;;;;;;;1.52;1.30;;;;;;;23.29;46.29;101001.50;2168163;81;32989;-59
2022/08/06 13:25:22;;;;;;;1.77;1.05;;;;;;;23.34;46.49;101004.17;2164957;81;29333;-58
2022/08/06 13:28:24;;;;;;;1.50;1.20;;;;;;;23.38;46.31;101007.47;2167385;81;27745;-63
2022/08/06 13:31:26;;;;;;;2.22;1.30;;;;;;;23.45;46.58;101001.81;2168108;81;29048;-58
2022/08/06 13:34:27;;;;;;;1.98;1.70;;;;;;;23.47;46.77;100999.80;2165468;81;30994;-57
2022/08/06 13:37:48;;;;;;;1.55;1.22;;;;;;;23.45;46.31;101011.38;2134796;83;32982;-57
2022/08/06 13:40:49;;;;;;;1.55;1.12;;;;;;;23.34;46.20;101021.94;2157780;81;29512;-62
2022/08/06 13:43:50;;;;;;;2.92;1.30;;;;;;;23.21;45.71;101015.37;2163302;81;27667;-57
2022/08/06 13:46:51;;;;;;;1.82;1.45;;;;;;;23.09;46.02;101012.86;2164307;81;28582;-58
2022/08/06 13:49:53;;;;;;;2.92;1.50;;;;;;;23.01;46.00;101010.83;2169051;81;32266;-58
2022/08/06 13:52:54;;;;;;;1.30;1.20;;;;;;;23.00;46.33;101011.34;2167683;81;33003;-62
2022/08/06 13:55:55;;;;;;;1.87;1.30;;;;;;;23.02;45.77;101003.88;2160817;81;29865;-58
2022/08/06 13:58:58;;;;;;;1.90;1.52;;;;;;;23.12;45.42;101003.02;2162611;81;28216;-59
2022/08/06 14:02:03;;;;;;;1.75;1.55;;;;;;;23.20;46.05;101001.34;2165977;81;28641;-58
2022/08/06 14:05:05;;;;;;;;;;;;;;;23.31;45.50;101003.08;2170601;81;31393;-64
2022/08/06 14:08:06;;;;;;;2.05;1.40;;;;;;;23.42;45.84;101005.31;2159283;81;33776;-65
2022/08/06 14:11:07;;;;;;;2.22;1.20;;;;;;;23.47;45.93;101001.66;2168099;81;29718;-63
2022/08/06 14:14:10;;;;;;;1.90;1.25;;;;;;;23.46;45.30;101004.02;2158866;81;27697;-58
2022/08/06 14:17:11;;;;;;;3.85;1.65;;;;;;;23.36;43.67;100999.42;2163396;81;29235;-60
2022/08/06 14:20:13;;;;;;;2.33;1.47;;;;;;;23.21;44.00;101005.80;2169990;81;31410;-60
2022/08/06 14:23:14;;;;;;;3.17;1.52;;;;;;;23.05;43.65;101002.23;2172354;81;33316;-58
2022/08/06 14:26:16;;;;;;;3.72;1.70;;;;;;;22.88;43.82;100998.30;2153314;81;29947;-61